createdAt,value
2018-08-09T00:00:34.910Z,19.15
2018-08-09T00:01:43.559Z,19.15
2018-08-09T00:02:52.210Z,19.2
2018-08-09T00:04:00.858Z,19.17
2018-08-09T00:05:09.507Z,19.15
2018-08-09T00:06:18.140Z,19.12
2018-08-09T00:07:26.792Z,19.17
2018-08-09T00:08:35.443Z,19.09
2018-08-09T00:09:44.363Z,19.17
2018-08-09T00:10:53.003Z,19.12
2018-08-09T00:12:01.664Z,19.17
2018-08-09T00:13:10.305Z,19.15
2018-08-09T00:14:18.961Z,19.16
2018-08-09T00:15:27.607Z,19.16
2018-08-09T00:16:36.777Z,19.08
2018-08-09T00:17:45.423Z,19.2
2018-08-09T00:18:54.346Z,19.19
2018-08-09T00:20:03.263Z,19.15
2018-08-09T00:21:11.906Z,19.24
2018-08-09T00:22:20.554Z,19.17
2018-08-09T00:23:29.199Z,19.15
2018-08-09T00:24:37.857Z,19.2
2018-08-09T00:25:46.759Z,19.12
2018-08-09T00:26:55.412Z,19.07
2018-08-09T00:28:04.051Z,19.05
2018-08-09T00:29:12.707Z,18.97
2018-08-09T00:30:21.350Z,18.86
2018-08-09T00:31:30.003Z,18.94
2018-08-09T00:32:38.638Z,18.97
2018-08-09T00:33:47.295Z,18.96
2018-08-09T00:34:56.209Z,18.98
2018-08-09T00:36:04.855Z,18.97
2018-08-09T00:37:13.501Z,18.98
2018-08-09T00:38:22.942Z,18.97
2018-08-09T00:39:31.871Z,18.98
2018-08-09T00:40:40.776Z,18.97
2018-08-09T00:41:49.425Z,18.94
2018-08-09T00:42:58.063Z,18.96
2018-08-09T00:44:06.717Z,19
2018-08-09T00:45:15.355Z,19
2018-08-09T00:46:24.011Z,19.01
2018-08-09T00:47:32.653Z,18.96
2018-08-09T00:48:41.307Z,18.96
2018-08-09T00:49:50.215Z,18.98
2018-08-09T00:50:58.868Z,18.96
2018-08-09T00:52:07.513Z,19.01
2018-08-09T00:53:16.161Z,18.97
2018-08-09T00:54:24.808Z,18.97
2018-08-09T00:55:33.500Z,18.92
2018-08-09T00:56:42.671Z,18.97
2018-08-09T00:57:51.317Z,18.96
2018-08-09T00:58:59.963Z,18.94
2018-08-09T01:00:08.884Z,18.96
2018-08-09T01:01:17.537Z,18.97
2018-08-09T01:02:26.182Z,18.94
2018-08-09T01:03:34.829Z,18.94
2018-08-09T01:04:43.471Z,18.98
2018-08-09T01:05:52.124Z,19
2018-08-09T01:07:00.769Z,19.04
2018-08-09T01:08:09.419Z,19.04
2018-08-09T01:09:18.061Z,19.04
2018-08-09T01:10:26.985Z,19.01
2018-08-09T01:11:35.629Z,19.04
2018-08-09T01:12:44.280Z,19
2018-08-09T01:13:52.923Z,19.07
2018-08-09T01:15:01.573Z,19.11
2018-08-09T01:16:10.219Z,19.08
2018-08-09T01:17:18.871Z,19.05
2018-08-09T01:18:27.520Z,18.97
2018-08-09T01:19:36.165Z,18.98
2018-08-09T01:20:45.397Z,19.07
2018-08-09T01:21:54.047Z,19.08
2018-08-09T01:23:02.698Z,18.98
2018-08-09T01:24:11.342Z,19.04
2018-08-09T01:25:19.987Z,19.07
2018-08-09T01:26:28.908Z,19.09
2018-08-09T01:27:37.562Z,19.05
2018-08-09T01:28:46.202Z,19.05
2018-08-09T01:29:54.852Z,19.07
2018-08-09T01:31:03.496Z,19.07
2018-08-09T01:32:12.147Z,19.09
2018-08-09T01:33:20.795Z,19.09
2018-08-09T01:34:29.437Z,19.05
2018-08-09T01:35:38.081Z,19.05
2018-08-09T01:36:46.726Z,19
2018-08-09T01:37:55.381Z,19.01
2018-08-09T01:39:04.021Z,19.04
2018-08-09T01:40:12.941Z,19
2018-08-09T01:41:21.576Z,19.01
2018-08-09T01:42:30.230Z,18.96
2018-08-09T01:43:38.876Z,18.94
2018-08-09T01:44:47.788Z,19
2018-08-09T01:45:56.428Z,18.91
2018-08-09T01:47:05.085Z,18.83
2018-08-09T01:48:13.731Z,18.86
2018-08-09T01:49:22.379Z,18.82
2018-08-09T01:50:31.017Z,18.73
2018-08-09T01:51:39.666Z,18.78
2018-08-09T01:52:48.589Z,18.71
2018-08-09T01:53:57.237Z,18.61
2018-08-09T01:55:05.888Z,18.67
2018-08-09T01:56:14.529Z,18.51
2018-08-09T01:57:23.186Z,18.51
2018-08-09T01:58:32.096Z,18.45
2018-08-09T01:59:40.757Z,18.43
2018-08-09T02:00:49.655Z,18.36
2018-08-09T02:01:58.304Z,18.21
2018-08-09T02:03:06.947Z,18.27
2018-08-09T02:04:15.607Z,18.21
2018-08-09T02:05:24.504Z,18.21
2018-08-09T02:06:33.154Z,18.16
2018-08-09T02:07:41.800Z,18.16
2018-08-09T02:08:50.725Z,18.11
2018-08-09T02:09:59.673Z,18.11
2018-08-09T02:11:08.580Z,18.16
2018-08-09T02:12:17.227Z,18.11
2018-08-09T02:13:25.874Z,18.16
2018-08-09T02:14:34.528Z,18.26
2018-08-09T02:15:43.175Z,18.23
2018-08-09T02:16:51.835Z,18.19
2018-08-09T02:18:00.473Z,18.21
2018-08-09T02:19:09.131Z,18.24
2018-08-09T02:20:17.771Z,18.24
2018-08-09T02:21:26.425Z,18.19
2018-08-09T02:22:35.062Z,18.21
2018-08-09T02:23:43.725Z,18.24
2018-08-09T02:24:52.362Z,18.18
2018-08-09T02:26:01.009Z,18.21
2018-08-09T02:27:10.172Z,18.21
2018-08-09T02:28:18.821Z,18.15
2018-08-09T02:29:27.474Z,18.27
2018-08-09T02:30:36.124Z,18.26
2018-08-09T02:31:44.779Z,18.21
2018-08-09T02:32:53.686Z,18.19
2018-08-09T02:34:02.336Z,18.16
2018-08-09T02:35:10.987Z,18.21
2018-08-09T02:36:19.646Z,18.26
2018-08-09T02:37:28.284Z,18.24
2018-08-09T02:38:37.220Z,18.21
2018-08-09T02:39:46.124Z,18.21
2018-08-09T02:40:54.784Z,18.11
2018-08-09T02:42:03.428Z,18.11
2018-08-09T02:43:12.612Z,18.06
2018-08-09T02:44:21.263Z,18.08
2018-08-09T02:45:29.908Z,18.12
2018-08-09T02:46:38.861Z,18.08
2018-08-09T02:47:47.473Z,17.97
2018-08-09T02:48:56.129Z,17.93
2018-08-09T02:50:04.780Z,17.9
2018-08-09T02:51:13.680Z,17.97
2018-08-09T02:52:22.625Z,17.9
2018-08-09T02:53:31.276Z,17.86
2018-08-09T02:54:39.930Z,17.78
2018-08-09T02:55:48.570Z,17.73
2018-08-09T02:56:57.486Z,17.76
2018-08-09T02:58:06.128Z,17.72
2018-08-09T02:59:14.784Z,17.66
2018-08-09T03:00:23.423Z,17.59
2018-08-09T03:01:32.069Z,17.54
2018-08-09T03:02:40.976Z,17.52
2018-08-09T03:03:49.919Z,17.53
2018-08-09T03:04:58.566Z,17.54
2018-08-09T03:06:07.729Z,17.53
2018-08-09T03:07:16.381Z,17.47
2018-08-09T03:08:25.568Z,17.53
2018-08-09T03:09:34.224Z,17.54
2018-08-09T03:10:42.867Z,17.53
2018-08-09T03:11:51.521Z,17.42
2018-08-09T03:13:00.159Z,17.46
2018-08-09T03:14:08.818Z,17.44
2018-08-09T03:15:17.459Z,17.54
2018-08-09T03:16:26.111Z,17.44
2018-08-09T03:17:34.750Z,17.52
2018-08-09T03:18:43.414Z,17.41
2018-08-09T03:19:52.057Z,17.39
2018-08-09T03:21:00.706Z,17.34
2018-08-09T03:22:09.344Z,17.38
2018-08-09T03:23:17.992Z,17.35
2018-08-09T03:24:26.736Z,17.37
2018-08-09T03:25:35.297Z,17.31
2018-08-09T03:26:43.943Z,17.23
2018-08-09T03:27:52.578Z,17.14
2018-08-09T03:29:01.229Z,17.19
2018-08-09T03:30:09.871Z,17.16
2018-08-09T03:31:18.534Z,17.14
2018-08-09T03:32:27.173Z,17.13
2018-08-09T03:33:35.825Z,17.14
2018-08-09T03:34:44.467Z,17.05
2018-08-09T03:35:53.124Z,17.04
2018-08-09T03:37:02.029Z,16.99
2018-08-09T03:38:10.676Z,17.09
2018-08-09T03:39:19.320Z,16.99
2018-08-09T03:40:28.238Z,16.98
2018-08-09T03:41:36.881Z,17.01
2018-08-09T03:42:45.529Z,17.01
2018-08-09T03:43:54.182Z,16.95
2018-08-09T03:45:02.821Z,16.97
2018-08-09T03:46:11.479Z,17.02
2018-08-09T03:47:20.386Z,16.87
2018-08-09T03:48:29.033Z,16.97
2018-08-09T03:49:37.677Z,16.84
2018-08-09T03:50:46.332Z,16.84
2018-08-09T03:51:55.242Z,16.82
2018-08-09T03:53:03.888Z,16.83
2018-08-09T03:54:12.529Z,16.8
2018-08-09T03:55:21.184Z,16.79
2018-08-09T03:56:30.090Z,16.83
2018-08-09T03:57:38.736Z,16.8
2018-08-09T03:58:47.379Z,16.84
2018-08-09T03:59:56.028Z,16.8
2018-08-09T04:01:04.935Z,16.77
2018-08-09T04:02:13.587Z,16.72
2018-08-09T04:03:22.498Z,16.69
2018-08-09T04:04:31.140Z,16.76
2018-08-09T04:05:39.785Z,16.83
2018-08-09T04:06:48.432Z,16.69
2018-08-09T04:07:57.082Z,16.79
2018-08-09T04:09:05.724Z,16.69
2018-08-09T04:10:14.371Z,16.73
2018-08-09T04:11:23.016Z,16.77
2018-08-09T04:12:31.929Z,16.77
2018-08-09T04:13:40.838Z,16.73
2018-08-09T04:14:49.486Z,16.69
2018-08-09T04:15:58.130Z,16.74
2018-08-09T04:17:06.781Z,16.83
2018-08-09T04:18:15.424Z,16.73
2018-08-09T04:19:24.070Z,16.86
2018-08-09T04:20:32.715Z,16.77
2018-08-09T04:21:41.365Z,16.82
2018-08-09T04:22:50.016Z,16.8
2018-08-09T04:23:58.662Z,16.87
2018-08-09T04:25:07.308Z,16.82
2018-08-09T04:26:15.953Z,16.83
2018-08-09T04:27:24.607Z,16.76
2018-08-09T04:28:33.253Z,16.72
2018-08-09T04:29:41.898Z,16.83
2018-08-09T04:30:50.537Z,16.74
2018-08-09T04:31:59.185Z,16.76
2018-08-09T04:33:08.086Z,16.8
2018-08-09T04:34:16.734Z,16.83
2018-08-09T04:35:25.377Z,16.82
2018-08-09T04:36:34.028Z,16.89
2018-08-09T04:37:42.936Z,16.95
2018-08-09T04:38:51.584Z,16.99
2018-08-09T04:40:00.230Z,17.02
2018-08-09T04:41:08.873Z,17.07
2018-08-09T04:42:17.519Z,17.1
2018-08-09T04:43:26.171Z,17.16
2018-08-09T04:44:34.808Z,17.17
2018-08-09T04:45:43.741Z,17.22
2018-08-09T04:46:52.382Z,17.31
2018-08-09T04:48:01.035Z,17.32
2018-08-09T04:49:09.703Z,17.37
2018-08-09T04:50:18.327Z,17.3
2018-08-09T04:51:26.968Z,17.35
2018-08-09T04:52:35.617Z,17.35
2018-08-09T04:53:44.253Z,17.34
2018-08-09T04:54:52.903Z,17.31
2018-08-09T04:56:01.556Z,17.39
2018-08-09T04:57:10.467Z,17.38
2018-08-09T04:58:19.139Z,17.39
2018-08-09T04:59:27.751Z,17.34
2018-08-09T05:00:36.401Z,17.46
2018-08-09T05:01:45.042Z,17.57
2018-08-09T05:02:53.697Z,17.46
2018-08-09T05:04:02.335Z,17.59
2018-08-09T05:05:10.987Z,17.6
2018-08-09T05:06:19.633Z,17.57
2018-08-09T05:07:28.556Z,17.57
2018-08-09T05:08:37.192Z,17.57
2018-08-09T05:09:45.841Z,17.75
2018-08-09T05:10:54.486Z,17.72
2018-08-09T05:12:03.140Z,17.69
2018-08-09T05:13:12.047Z,17.78
2018-08-09T05:14:20.690Z,17.75
2018-08-09T05:15:29.336Z,17.73
2018-08-09T05:16:37.983Z,17.78
2018-08-09T05:17:46.639Z,17.76
2018-08-09T05:18:55.285Z,17.8
2018-08-09T05:20:04.198Z,17.82
2018-08-09T05:21:13.097Z,17.8
2018-08-09T05:22:21.754Z,17.8
2018-08-09T05:23:30.394Z,17.95
2018-08-09T05:24:39.316Z,17.97
2018-08-09T05:25:47.949Z,17.93
2018-08-09T05:26:56.609Z,17.91
2018-08-09T05:28:05.250Z,18
2018-08-09T05:29:14.174Z,18
2018-08-09T05:30:22.814Z,18.09
2018-08-09T05:31:31.723Z,18.06
2018-08-09T05:32:40.374Z,18.09
2018-08-09T05:33:49.022Z,18.12
2018-08-09T05:34:57.671Z,18.18
2018-08-09T05:36:06.310Z,18.18
2018-08-09T05:37:14.962Z,18.13
2018-08-09T05:38:23.604Z,18.18
2018-08-09T05:39:32.257Z,18.24
2018-08-09T05:40:40.898Z,18.21
2018-08-09T05:41:49.545Z,18.26
2018-08-09T05:42:58.185Z,18.27
2018-08-09T05:44:06.842Z,18.34
2018-08-09T05:45:15.515Z,18.3
2018-08-09T05:46:24.134Z,18.28
2018-08-09T05:47:32.780Z,18.3
2018-08-09T05:48:41.430Z,18.24
2018-08-09T05:49:50.075Z,18.28
2018-08-09T05:50:58.722Z,18.33
2018-08-09T05:52:07.366Z,18.34
2018-08-09T05:53:16.039Z,18.36
2018-08-09T05:54:25.386Z,18.41
2018-08-09T05:55:34.033Z,18.42
2018-08-09T05:56:42.944Z,18.41
2018-08-09T05:57:51.588Z,18.45
2018-08-09T05:59:00.244Z,18.52
2018-08-09T06:00:08.889Z,18.57
2018-08-09T06:01:17.536Z,18.58
2018-08-09T06:02:26.176Z,18.67
2018-08-09T06:03:34.829Z,18.71
2018-08-09T06:04:43.473Z,18.76
2018-08-09T06:05:52.495Z,18.73
2018-08-09T06:07:01.373Z,18.73
2018-08-09T06:08:10.284Z,18.73
2018-08-09T06:09:19.195Z,18.74
2018-08-09T06:10:27.845Z,18.85
2018-08-09T06:11:36.493Z,18.82
2018-08-09T06:12:45.136Z,18.82
2018-08-09T06:13:54.052Z,18.94
2018-08-09T06:15:02.707Z,18.92
2018-08-09T06:16:11.361Z,18.94
2018-08-09T06:17:20.002Z,18.98
2018-08-09T06:18:28.912Z,19.05
2018-08-09T06:19:37.557Z,18.97
2018-08-09T06:20:46.479Z,19.07
2018-08-09T06:21:55.128Z,19.05
2018-08-09T06:23:03.775Z,19
2018-08-09T06:24:12.421Z,19.09
2018-08-09T06:25:21.074Z,18.96
2018-08-09T06:26:29.849Z,19.01
2018-08-09T06:27:38.371Z,19.04
2018-08-09T06:28:47.395Z,19.04
2018-08-09T06:29:56.013Z,19.07
2018-08-09T06:31:04.666Z,19.04
2018-08-09T06:32:13.579Z,19.04
2018-08-09T06:33:22.269Z,18.98
2018-08-09T06:34:30.872Z,19
2018-08-09T06:35:39.525Z,18.98
2018-08-09T06:36:48.172Z,18.97
2018-08-09T06:37:56.818Z,19.04
2018-08-09T06:39:05.468Z,19.15
2018-08-09T06:40:14.110Z,19.17
2018-08-09T06:41:22.760Z,19.15
2018-08-09T06:42:31.405Z,19.22
2018-08-09T06:43:40.056Z,19.24
2018-08-09T06:44:48.969Z,19.32
2018-08-09T06:45:57.619Z,19.32
2018-08-09T06:47:06.266Z,19.32
2018-08-09T06:48:15.175Z,19.49
2018-08-09T06:49:23.828Z,19.57
2018-08-09T06:50:32.476Z,19.63
2018-08-09T06:51:41.124Z,19.7
2018-08-09T06:52:50.031Z,19.66
2018-08-09T06:53:58.681Z,19.75
2018-08-09T06:55:07.332Z,19.85
2018-08-09T06:56:16.031Z,19.84
2018-08-09T06:57:24.627Z,19.82
2018-08-09T06:58:33.282Z,19.85
2018-08-09T06:59:41.927Z,19.71
2018-08-09T07:00:50.576Z,19.79
2018-08-09T07:01:59.217Z,19.74
2018-08-09T07:03:07.868Z,19.75
2018-08-09T07:04:16.515Z,19.79
2018-08-09T07:05:25.166Z,19.71
2018-08-09T07:06:33.816Z,19.71
2018-08-09T07:07:42.461Z,19.72
2018-08-09T07:08:51.108Z,19.75
2018-08-09T07:09:59.754Z,19.75
2018-08-09T07:11:08.407Z,19.75
2018-08-09T07:12:17.050Z,19.77
2018-08-09T07:13:25.960Z,19.77
2018-08-09T07:14:34.867Z,19.75
2018-08-09T07:15:43.520Z,19.84
2018-08-09T07:16:52.164Z,19.79
2018-08-09T07:18:00.818Z,19.71
2018-08-09T07:19:09.459Z,19.82
2018-08-09T07:20:18.149Z,19.92
2018-08-09T07:21:27.103Z,19.93
2018-08-09T07:22:35.751Z,20.1
2018-08-09T07:23:44.397Z,20.07
2018-08-09T07:24:53.043Z,20.17
2018-08-09T07:26:01.698Z,20.15
2018-08-09T07:27:10.345Z,20.17
2018-08-09T07:28:18.991Z,20.1
2018-08-09T07:29:27.635Z,20.19
2018-08-09T07:30:36.285Z,20.21
2018-08-09T07:31:44.934Z,20.18
2018-08-09T07:32:53.579Z,20.18
2018-08-09T07:34:02.221Z,20.3
2018-08-09T07:35:10.868Z,20.37
2018-08-09T07:36:19.513Z,20.37
2018-08-09T07:37:28.165Z,20.32
2018-08-09T07:38:36.805Z,20.4
2018-08-09T07:39:45.839Z,20.4
2018-08-09T07:40:54.441Z,20.36
2018-08-09T07:42:03.095Z,20.37
2018-08-09T07:43:11.744Z,20.55
2018-08-09T07:44:20.384Z,20.56
2018-08-09T07:45:29.038Z,20.66
2018-08-09T07:46:37.933Z,20.82
2018-08-09T07:47:46.591Z,20.88
2018-08-09T07:48:55.231Z,20.98
2018-08-09T07:50:03.884Z,21.15
2018-08-09T07:51:12.527Z,21.26
2018-08-09T07:52:21.195Z,21.44
2018-08-09T07:53:29.827Z,21.58
2018-08-09T07:54:38.478Z,21.68
2018-08-09T07:55:47.125Z,21.89
2018-08-09T07:56:55.832Z,21.96
2018-08-09T07:58:04.429Z,22.01
2018-08-09T07:59:13.350Z,22.1
2018-08-09T08:00:22.001Z,22.18
2018-08-09T08:01:30.655Z,22.3
2018-08-09T08:02:39.313Z,22.34
2018-08-09T08:03:47.958Z,22.46
2018-08-09T08:04:56.612Z,22.44
2018-08-09T08:06:05.288Z,22.43
2018-08-09T08:07:13.911Z,22.55
2018-08-09T08:08:22.610Z,22.61
2018-08-09T08:09:31.215Z,22.53
2018-08-09T08:10:39.864Z,22.62
2018-08-09T08:11:48.784Z,22.62
2018-08-09T08:12:57.433Z,22.53
2018-08-09T08:14:06.344Z,22.53
2018-08-09T08:15:14.985Z,22.55
2018-08-09T08:16:23.635Z,22.49
2018-08-09T08:17:32.291Z,22.38
2018-08-09T08:18:41.212Z,22.33
2018-08-09T08:19:49.866Z,22.33
2018-08-09T08:20:58.505Z,22.33
2018-08-09T08:22:07.161Z,22.23
2018-08-09T08:23:16.071Z,22.28
2018-08-09T08:24:24.733Z,22.22
2018-08-09T08:25:33.372Z,22.16
2018-08-09T08:26:42.054Z,22.19
2018-08-09T08:27:50.940Z,22.1
2018-08-09T08:28:59.598Z,22.15
2018-08-09T08:30:08.238Z,22.15
2018-08-09T08:31:16.890Z,22.12
2018-08-09T08:32:25.535Z,22.15
2018-08-09T08:33:34.194Z,22.14
2018-08-09T08:34:42.939Z,22.22
2018-08-09T08:35:51.485Z,22.31
2018-08-09T08:37:00.144Z,22.44
2018-08-09T08:38:08.787Z,22.49
2018-08-09T08:39:17.708Z,22.55
2018-08-09T08:40:26.358Z,22.67
2018-08-09T08:41:35.088Z,22.78
2018-08-09T08:42:44.100Z,22.93
2018-08-09T08:43:52.753Z,23.06
2018-08-09T08:45:01.405Z,23.16
2018-08-09T08:46:10.054Z,23.28
2018-08-09T08:47:18.730Z,23.37
2018-08-09T08:48:27.355Z,23.44
2018-08-09T08:49:36.005Z,23.47
2018-08-09T08:50:44.658Z,23.56
2018-08-09T08:51:53.300Z,23.64
2018-08-09T08:53:02.015Z,23.58
2018-08-09T08:54:10.604Z,23.66
2018-08-09T08:55:19.574Z,23.77
2018-08-09T08:56:28.174Z,23.85
2018-08-09T08:57:37.086Z,23.99
2018-08-09T08:58:45.737Z,23.92
2018-08-09T08:59:54.696Z,23.94
2018-08-09T09:01:03.484Z,23.94
2018-08-09T09:02:12.001Z,23.85
2018-08-09T09:03:21.217Z,23.88
2018-08-09T09:04:30.347Z,23.99
2018-08-09T09:05:39.002Z,23.86
2018-08-09T09:06:47.653Z,24.01
2018-08-09T09:07:56.300Z,24.01
2018-08-09T09:09:04.955Z,23.95
2018-08-09T09:10:13.711Z,23.92
2018-08-09T09:11:22.355Z,23.84
2018-08-09T09:12:31.006Z,23.94
2018-08-09T09:13:39.996Z,23.94
2018-08-09T09:14:48.635Z,24.06
2018-08-09T09:15:57.556Z,24.11
2018-08-09T09:17:06.213Z,24.28
2018-08-09T09:18:14.865Z,24.32
2018-08-09T09:19:23.514Z,24.47
2018-08-09T09:20:32.171Z,24.55
2018-08-09T09:21:41.089Z,24.63
2018-08-09T09:22:49.742Z,24.63
2018-08-09T09:23:58.388Z,24.63
2018-08-09T09:25:07.043Z,24.66
2018-08-09T09:26:15.693Z,24.69
2018-08-09T09:27:24.348Z,24.51
2018-08-09T09:28:34.144Z,24.51
2018-08-09T09:29:43.448Z,24.4
2018-08-09T09:30:52.103Z,24.34
2018-08-09T09:32:00.757Z,24.34
2018-08-09T09:33:09.801Z,24.29
2018-08-09T09:34:18.453Z,24.22
2018-08-09T09:35:27.368Z,24.24
2018-08-09T09:36:36.021Z,24.25
2018-08-09T09:37:44.678Z,24.24
2018-08-09T09:38:53.324Z,24.28
2018-08-09T09:40:01.982Z,24.46
2018-08-09T09:41:10.635Z,24.55
2018-08-09T09:42:19.294Z,24.58
2018-08-09T09:43:27.936Z,24.69
2018-08-09T09:44:36.589Z,24.71
2018-08-09T09:45:45.516Z,24.85
2018-08-09T09:46:54.177Z,24.94
2018-08-09T09:48:03.085Z,24.93
2018-08-09T09:49:11.731Z,24.96
2018-08-09T09:50:20.382Z,25.01
2018-08-09T09:51:29.034Z,25.07
2018-08-09T09:52:38.222Z,25.3
2018-08-09T09:53:46.865Z,25.46
2018-08-09T09:54:55.571Z,25.55
2018-08-09T09:56:04.547Z,25.71
2018-08-09T09:57:13.147Z,25.88
2018-08-09T09:58:21.798Z,25.93
2018-08-09T09:59:30.453Z,25.93
2018-08-09T10:00:39.095Z,26.06
2018-08-09T10:01:47.835Z,26.29
2018-08-09T10:02:56.809Z,26.42
2018-08-09T10:04:05.464Z,26.42
2018-08-09T10:05:14.106Z,26.49
2018-08-09T10:06:22.760Z,26.49
2018-08-09T10:07:31.419Z,26.53
2018-08-09T10:08:40.073Z,26.53
2018-08-09T10:09:48.996Z,26.59
2018-08-09T10:10:57.640Z,26.61
2018-08-09T10:12:06.569Z,26.6
2018-08-09T10:13:15.219Z,26.61
2018-08-09T10:14:23.881Z,26.73
2018-08-09T10:15:32.525Z,26.81
2018-08-09T10:16:41.183Z,26.85
2018-08-09T10:17:49.828Z,26.85
2018-08-09T10:18:58.487Z,26.89
2018-08-09T10:20:07.132Z,26.89
2018-08-09T10:21:16.053Z,26.83
2018-08-09T10:22:24.702Z,26.91
2018-08-09T10:23:33.367Z,26.98
2018-08-09T10:24:42.278Z,26.92
2018-08-09T10:25:50.929Z,27.01
2018-08-09T10:26:59.578Z,27.01
2018-08-09T10:28:08.229Z,27.11
2018-08-09T10:29:16.891Z,26.98
2018-08-09T10:30:25.550Z,27
2018-08-09T10:31:34.207Z,27.03
2018-08-09T10:32:42.851Z,27.08
2018-08-09T10:33:51.506Z,27.03
2018-08-09T10:35:00.163Z,27.04
2018-08-09T10:36:08.813Z,26.93
2018-08-09T10:37:17.483Z,26.89
2018-08-09T10:38:26.121Z,26.66
2018-08-09T10:39:34.778Z,26.44
2018-08-09T10:40:43.426Z,26.51
2018-08-09T10:41:52.090Z,26.53
2018-08-09T10:43:00.743Z,26.63
2018-08-09T10:44:09.392Z,26.68
2018-08-09T10:45:18.046Z,26.67
2018-08-09T10:46:26.695Z,26.81
2018-08-09T10:47:35.631Z,26.83
2018-08-09T10:48:44.280Z,26.88
2018-08-09T10:49:52.941Z,26.97
2018-08-09T10:51:01.580Z,26.98
2018-08-09T10:52:10.240Z,27.07
2018-08-09T10:53:18.891Z,27.01
2018-08-09T10:54:27.552Z,27.05
2018-08-09T10:55:36.229Z,27.08
2018-08-09T10:56:45.191Z,27.03
2018-08-09T10:57:53.846Z,27
2018-08-09T10:59:02.503Z,27.07
2018-08-09T11:00:11.145Z,27.11
2018-08-09T11:01:19.804Z,27.25
2018-08-09T11:02:28.462Z,27.25
2018-08-09T11:03:37.381Z,27.38
2018-08-09T11:04:46.036Z,27.37
2018-08-09T11:05:54.680Z,27.29
2018-08-09T11:07:03.605Z,27.25
2018-08-09T11:08:12.250Z,27.19
2018-08-09T11:09:21.193Z,27.25
2018-08-09T11:10:30.080Z,27.28
2018-08-09T11:11:38.739Z,27.3
2018-08-09T11:12:48.173Z,27.33
2018-08-09T11:13:57.103Z,27.43
2018-08-09T11:15:05.775Z,27.47
2018-08-09T11:16:14.673Z,27.57
2018-08-09T11:17:23.327Z,27.71
2018-08-09T11:18:32.260Z,27.67
2018-08-09T11:19:40.913Z,27.64
2018-08-09T11:20:49.823Z,27.55
2018-08-09T11:21:58.471Z,27.64
2018-08-09T11:23:07.124Z,27.78
2018-08-09T11:24:15.788Z,27.86
2018-08-09T11:25:24.437Z,27.93
2018-08-09T11:26:33.098Z,28.19
2018-08-09T11:27:42.005Z,28.41
2018-08-09T11:28:50.666Z,28.62
2018-08-09T11:29:59.355Z,28.77
2018-08-09T11:31:07.975Z,28.8
2018-08-09T11:32:16.627Z,28.87
2018-08-09T11:33:25.285Z,28.82
2018-08-09T11:34:33.937Z,28.97
2018-08-09T11:35:42.594Z,28.87
2018-08-09T11:36:51.251Z,28.87
2018-08-09T11:37:59.910Z,28.8
2018-08-09T11:39:08.565Z,28.71
2018-08-09T11:40:17.220Z,28.72
2018-08-09T11:41:25.876Z,28.47
2018-08-09T11:42:34.522Z,28.5
2018-08-09T11:43:43.436Z,28.49
2018-08-09T11:44:52.091Z,28.53
2018-08-09T11:46:00.769Z,28.74
2018-08-09T11:47:09.419Z,28.72
2018-08-09T11:48:18.072Z,28.82
2018-08-09T11:49:26.797Z,28.84
2018-08-09T11:50:35.425Z,28.84
2018-08-09T11:51:44.381Z,28.82
2018-08-09T11:52:53.056Z,28.84
2018-08-09T11:54:02.241Z,28.9
2018-08-09T11:55:10.901Z,28.97
2018-08-09T11:56:19.578Z,28.97
2018-08-09T11:57:28.479Z,29
2018-08-09T11:58:37.130Z,28.97
2018-08-09T11:59:46.349Z,29.02
2018-08-09T12:00:55.006Z,29.05
2018-08-09T12:02:03.660Z,29.02
2018-08-09T12:03:12.361Z,29.03
2018-08-09T12:04:20.964Z,28.87
2018-08-09T12:05:29.624Z,28.96
2018-08-09T12:06:38.278Z,28.89
2018-08-09T12:07:46.932Z,28.9
2018-08-09T12:08:55.580Z,28.93
2018-08-09T12:10:04.240Z,28.92
2018-08-09T12:11:12.890Z,29.03
2018-08-09T12:12:21.548Z,29.07
2018-08-09T12:13:30.475Z,29.28
2018-08-09T12:14:39.116Z,29.25
2018-08-09T12:15:48.297Z,29.3
2018-08-09T12:16:56.954Z,29.25
2018-08-09T12:18:05.610Z,29.39
2018-08-09T12:19:14.261Z,29.43
2018-08-09T12:20:22.917Z,29.55
2018-08-09T12:21:31.575Z,29.62
2018-08-09T12:22:40.503Z,29.58
2018-08-09T12:23:49.152Z,29.57
2018-08-09T12:24:57.806Z,29.55
2018-08-09T12:26:06.460Z,29.43
2018-08-09T12:27:15.118Z,29.35
2018-08-09T12:28:23.770Z,29.31
2018-08-09T12:29:32.427Z,29.06
2018-08-09T12:30:41.083Z,29
2018-08-09T12:31:49.732Z,29.12
2018-08-09T12:32:58.388Z,29.2
2018-08-09T12:34:07.310Z,29.16
2018-08-09T12:35:15.968Z,29.27
2018-08-09T12:36:24.631Z,29.34
2018-08-09T12:37:33.270Z,29.58
2018-08-09T12:38:41.928Z,29.59
2018-08-09T12:39:50.578Z,29.69
2018-08-09T12:40:59.244Z,29.68
2018-08-09T12:42:08.156Z,29.64
2018-08-09T12:43:16.819Z,29.74
2018-08-09T12:44:25.472Z,29.73
2018-08-09T12:45:34.158Z,29.76
2018-08-09T12:46:43.129Z,29.76
2018-08-09T12:47:51.786Z,29.81
2018-08-09T12:49:00.436Z,29.87
2018-08-09T12:50:09.106Z,29.83
2018-08-09T12:51:17.759Z,29.77
2018-08-09T12:52:26.410Z,29.79
2018-08-09T12:53:35.062Z,29.79
2018-08-09T12:54:43.714Z,29.79
2018-08-09T12:55:52.378Z,29.8
2018-08-09T12:57:01.293Z,29.77
2018-08-09T12:58:09.952Z,29.77
2018-08-09T12:59:19.137Z,29.83
2018-08-09T13:00:27.808Z,29.81
2018-08-09T13:01:36.458Z,29.77
2018-08-09T13:02:45.114Z,29.86
2018-08-09T13:03:53.761Z,29.86
2018-08-09T13:05:02.429Z,29.92
2018-08-09T13:06:11.077Z,29.87
2018-08-09T13:07:19.734Z,29.81
2018-08-09T13:08:28.425Z,29.8
2018-08-09T13:09:37.040Z,29.77
2018-08-09T13:10:45.965Z,29.81
2018-08-09T13:11:54.887Z,29.83
2018-08-09T13:13:03.545Z,29.89
2018-08-09T13:14:12.193Z,29.8
2018-08-09T13:15:20.849Z,29.84
2018-08-09T13:16:29.499Z,29.81
2018-08-09T13:17:38.168Z,29.65
2018-08-09T13:18:47.337Z,29.65
2018-08-09T13:19:55.997Z,29.5
2018-08-09T13:21:04.647Z,29.37
2018-08-09T13:22:13.313Z,29.39
2018-08-09T13:23:22.255Z,29.44
2018-08-09T13:24:31.264Z,29.34
2018-08-09T13:25:39.910Z,29.42
2018-08-09T13:26:48.574Z,29.3
2018-08-09T13:27:57.226Z,29.25
2018-08-09T13:29:05.879Z,29.34
2018-08-09T13:30:14.563Z,29.3
2018-08-09T13:31:23.456Z,29.18
2018-08-09T13:32:32.387Z,29.05
2018-08-09T13:33:41.092Z,28.94
2018-08-09T13:34:50.068Z,29.03
2018-08-09T13:35:58.715Z,29.03
2018-08-09T13:37:07.373Z,29
2018-08-09T13:38:16.027Z,29
2018-08-09T13:39:24.683Z,29.02
2018-08-09T13:40:33.592Z,28.97
2018-08-09T13:41:42.248Z,28.96
2018-08-09T13:42:50.904Z,28.92
2018-08-09T13:43:59.557Z,28.86
2018-08-09T13:45:08.207Z,28.86
2018-08-09T13:46:16.868Z,28.78
2018-08-09T13:47:25.783Z,28.83
2018-08-09T13:48:34.708Z,28.83
2018-08-09T13:49:43.364Z,28.87
2018-08-09T13:50:52.014Z,28.84
2018-08-09T13:52:00.931Z,29.03
2018-08-09T13:53:09.586Z,29.06
2018-08-09T13:54:18.247Z,29.06
2018-08-09T13:55:27.156Z,29.1
2018-08-09T13:56:36.072Z,29.18
2018-08-09T13:57:44.738Z,29.18
2018-08-09T13:58:53.398Z,29.2
2018-08-09T14:00:02.055Z,29.2
2018-08-09T14:01:10.977Z,29.07
2018-08-09T14:02:19.893Z,29.09
2018-08-09T14:03:28.555Z,29
2018-08-09T14:04:37.239Z,28.87
2018-08-09T14:05:45.896Z,28.83
2018-08-09T14:06:54.548Z,28.83
2018-08-09T14:08:03.463Z,28.8
2018-08-09T14:09:12.121Z,28.72
2018-08-09T14:10:20.775Z,28.57
2018-08-09T14:11:29.430Z,28.55
2018-08-09T14:12:38.081Z,28.5
2018-08-09T14:13:46.743Z,28.37
2018-08-09T14:14:55.663Z,28.33
2018-08-09T14:16:04.596Z,28.27
2018-08-09T14:17:13.244Z,28.19
2018-08-09T14:18:21.904Z,28.16
2018-08-09T14:19:30.824Z,28.13
2018-08-09T14:20:39.482Z,28.13
2018-08-09T14:21:48.141Z,28.01
2018-08-09T14:22:57.055Z,27.93
2018-08-09T14:24:05.718Z,27.68
2018-08-09T14:25:14.639Z,27.41
2018-08-09T14:26:23.300Z,27.08
2018-08-09T14:27:31.951Z,26.82
2018-08-09T14:28:40.605Z,26.64
2018-08-09T14:29:49.260Z,26.45
2018-08-09T14:30:57.908Z,26.1
2018-08-09T14:32:06.573Z,25.74
2018-08-09T14:33:15.487Z,25.58
2018-08-09T14:34:24.401Z,25.46
2018-08-09T14:35:33.313Z,25.33
2018-08-09T14:36:41.970Z,25.22
2018-08-09T14:37:50.968Z,25.09
2018-08-09T14:38:59.938Z,25.03
2018-08-09T14:40:08.586Z,24.93
2018-08-09T14:41:17.239Z,24.94
2018-08-09T14:42:25.936Z,24.79
2018-08-09T14:43:34.546Z,24.85
2018-08-09T14:44:43.203Z,24.71
2018-08-09T14:45:52.115Z,24.68
2018-08-09T14:47:00.769Z,24.63
2018-08-09T14:48:09.422Z,24.63
2018-08-09T14:49:18.079Z,24.59